sensor_id;sensor_type;location;lat;lon;timestamp;P1;durP1;ratioP1;P2;durP2;ratioP2
9485;SDS011;4781;48.776;9.200;2023-06-10T00:00:02;10.20;;;9.15;;
9485;SDS011;4781;48.776;9.200;2023-06-10T00:02:33;11.40;;;9.13;;
9485;SDS011;4781;48.776;9.200;2023-06-10T00:05:01;11.10;;;10.00;;
9485;SDS011;4781;48.776;9.200;2023-06-10T00:07:30;10.15;;;9.15;;
9485;SDS011;4781;48.776;9.200;2023-06-10T00:09:59;10.75;;;9.60;;
9485;SDS011;4781;48.776;9.200;2023-06-10T00:12:29;11.08;;;9.78;;
9485;SDS011;4781;48.776;9.200;2023-06-10T00:14:59;11.95;;;10.30;;
9485;SDS011;4781;48.776;9.200;2023-06-10T00:17:27;11.30;;;10.10;;
9485;SDS011;4781;48.776;9.200;2023-06-10T00:19:56;11.85;;;10.65;;
9485;SDS011;4781;48.776;9.200;2023-06-10T00:22:24;13.03;;;9.88;;
9485;SDS011;4781;48.776;9.200;2023-06-10T00:24:54;10.38;;;9.35;;
9485;SDS011;4781;48.776;9.200;2023-06-10T00:27:23;12.93;;;10.00;;
9485;SDS011;4781;48.776;9.200;2023-06-10T00:29:53;11.08;;;9.85;;
9485;SDS011;4781;48.776;9.200;2023-06-10T00:32:22;12.30;;;10.45;;
9485;SDS011;4781;48.776;9.200;2023-06-10T00:34:50;10.85;;;9.83;;
9485;SDS011;4781;48.776;9.200;2023-06-10T00:37:18;12.58;;;10.60;;
9485;SDS011;4781;48.776;9.200;2023-06-10T00:39:47;12.88;;;10.53;;
9485;SDS011;4781;48.776;9.200;2023-06-10T00:42:15;13.10;;;10.40;;
9485;SDS011;4781;48.776;9.200;2023-06-10T00:44:45;13.40;;;11.15;;
9485;SDS011;4781;48.776;9.200;2023-06-10T00:47:14;13.15;;;10.00;;
9485;SDS011;4781;48.776;9.200;2023-06-10T00:49:43;12.35;;;10.50;;
9485;SDS011;4781;48.776;9.200;2023-06-10T00:52:13;11.78;;;10.58;;
9485;SDS011;4781;48.776;9.200;2023-06-10T00:54:42;13.75;;;10.35;;
9485;SDS011;4781;48.776;9.200;2023-06-10T00:57:11;12.47;;;11.03;;
9485;SDS011;4781;48.776;9.200;2023-06-10T00:59:40;13.50;;;10.72;;
9485;SDS011;4781;48.776;9.200;2023-06-10T01:02:12;13.88;;;11.00;;
9485;SDS011;4781;48.776;9.200;2023-06-10T01:04:40;13.03;;;10.72;;
9485;SDS011;4781;48.776;9.200;2023-06-10T01:07:14;12.45;;;11.03;;
9485;SDS011;4781;48.776;9.200;2023-06-10T01:12:29;12.20;;;10.30;;
9485;SDS011;4781;48.776;9.200;2023-06-10T01:15:06;11.73;;;10.53;;
9485;SDS011;4781;48.776;9.200;2023-06-10T01:17:37;13.43;;;10.43;;
9485;SDS011;4781;48.776;9.200;2023-06-10T01:20:42;12.78;;;11.43;;
9485;SDS011;4781;48.776;9.200;2023-06-10T01:23:12;11.53;;;10.32;;
9485;SDS011;4781;48.776;9.200;2023-06-10T01:25:46;12.60;;;10.80;;
9485;SDS011;4781;48.776;9.200;2023-06-10T01:28:41;12.20;;;9.78;;
9485;SDS011;4781;48.776;9.200;2023-06-10T01:31:20;11.88;;;10.48;;
9485;SDS011;4781;48.776;9.200;2023-06-10T01:33:51;11.43;;;10.25;;
9485;SDS011;4781;48.776;9.200;2023-06-10T01:36:21;12.03;;;10.00;;
9485;SDS011;4781;48.776;9.200;2023-06-10T01:38:50;12.30;;;10.25;;
9485;SDS011;4781;48.776;9.200;2023-06-10T01:41:21;10.82;;;9.73;;
9485;SDS011;4781;48.776;9.200;2023-06-10T01:43:50;11.85;;;9.88;;
9485;SDS011;4781;48.776;9.200;2023-06-10T01:46:19;10.82;;;9.70;;
9485;SDS011;4781;48.776;9.200;2023-06-10T01:48:47;11.35;;;10.20;;
9485;SDS011;4781;48.776;9.200;2023-06-10T01:51:16;12.82;;;10.08;;
9485;SDS011;4781;48.776;9.200;2023-06-10T01:53:44;11.43;;;9.55;;
9485;SDS011;4781;48.776;9.200;2023-06-10T01:56:13;10.88;;;9.63;;
9485;SDS011;4781;48.776;9.200;2023-06-10T01:58:43;11.08;;;9.98;;
9485;SDS011;4781;48.776;9.200;2023-06-10T02:01:12;10.95;;;9.75;;
9485;SDS011;4781;48.776;9.200;2023-06-10T02:03:41;11.83;;;10.48;;
9485;SDS011;4781;48.776;9.200;2023-06-10T02:06:12;10.78;;;9.68;;
9485;SDS011;4781;48.776;9.200;2023-06-10T02:08:40;11.73;;;10.20;;
9485;SDS011;4781;48.776;9.200;2023-06-10T02:11:08;11.15;;;9.63;;
9485;SDS011;4781;48.776;9.200;2023-06-10T02:13:38;11.18;;;10.03;;
9485;SDS011;4781;48.776;9.200;2023-06-10T02:16:06;11.25;;;10.10;;
9485;SDS011;4781;48.776;9.200;2023-06-10T02:18:36;12.28;;;9.68;;
9485;SDS011;4781;48.776;9.200;2023-06-10T02:21:07;11.18;;;9.95;;
9485;SDS011;4781;48.776;9.200;2023-06-10T02:23:36;10.88;;;9.65;;
9485;SDS011;4781;48.776;9.200;2023-06-10T02:26:04;11.43;;;10.03;;
9485;SDS011;4781;48.776;9.200;2023-06-10T02:28:33;10.20;;;9.10;;
9485;SDS011;4781;48.776;9.200;2023-06-10T02:31:01;12.07;;;10.00;;
9485;SDS011;4781;48.776;9.200;2023-06-10T02:33:29;11.73;;;9.95;;
9485;SDS011;4781;48.776;9.200;2023-06-10T02:35:59;10.40;;;9.18;;
9485;SDS011;4781;48.776;9.200;2023-06-10T02:38:28;10.72;;;9.40;;
9485;SDS011;4781;48.776;9.200;2023-06-10T02:40:56;9.80;;;8.80;;
9485;SDS011;4781;48.776;9.200;2023-06-10T02:43:24;12.25;;;9.63;;
9485;SDS011;4781;48.776;9.200;2023-06-10T02:45:53;10.55;;;9.45;;
9485;SDS011;4781;48.776;9.200;2023-06-10T02:48:23;11.20;;;9.48;;
9485;SDS011;4781;48.776;9.200;2023-06-10T02:50:51;10.60;;;9.50;;
9485;SDS011;4781;48.776;9.200;2023-06-10T02:53:21;11.20;;;9.15;;
9485;SDS011;4781;48.776;9.200;2023-06-10T02:55:50;11.33;;;10.13;;
9485;SDS011;4781;48.776;9.200;2023-06-10T02:58:18;9.68;;;8.68;;
9485;SDS011;4781;48.776;9.200;2023-06-10T03:00:47;10.32;;;8.95;;
9485;SDS011;4781;48.776;9.200;2023-06-10T03:03:15;11.00;;;9.48;;
9485;SDS011;4781;48.776;9.200;2023-06-10T03:05:44;10.63;;;9.28;;
9485;SDS011;4781;48.776;9.200;2023-06-10T03:08:12;12.40;;;9.53;;
9485;SDS011;4781;48.776;9.200;2023-06-10T03:10:41;12.33;;;9.15;;
9485;SDS011;4781;48.776;9.200;2023-06-10T03:13:09;12.68;;;9.68;;
9485;SDS011;4781;48.776;9.200;2023-06-10T03:15:38;10.98;;;9.78;;
9485;SDS011;4781;48.776;9.200;2023-06-10T03:18:06;11.50;;;10.05;;
9485;SDS011;4781;48.776;9.200;2023-06-10T03:20:35;11.08;;;9.93;;
9485;SDS011;4781;48.776;9.200;2023-06-10T03:23:06;11.83;;;9.93;;
9485;SDS011;4781;48.776;9.200;2023-06-10T03:25:35;11.33;;;10.13;;
9485;SDS011;4781;48.776;9.200;2023-06-10T03:28:03;12.07;;;9.23;;
9485;SDS011;4781;48.776;9.200;2023-06-10T03:30:32;11.55;;;10.20;;
9485;SDS011;4781;48.776;9.200;2023-06-10T03:33:00;11.38;;;10.18;;
9485;SDS011;4781;48.776;9.200;2023-06-10T03:35:29;12.00;;;9.88;;
9485;SDS011;4781;48.776;9.200;2023-06-10T03:38:00;11.45;;;9.35;;
9485;SDS011;4781;48.776;9.200;2023-06-10T03:40:29;10.72;;;9.60;;
9485;SDS011;4781;48.776;9.200;2023-06-10T03:42:57;12.25;;;10.05;;
9485;SDS011;4781;48.776;9.200;2023-06-10T03:45:27;12.03;;;10.38;;
9485;SDS011;4781;48.776;9.200;2023-06-10T03:47:55;13.68;;;10.32;;
9485;SDS011;4781;48.776;9.200;2023-06-10T03:50:24;11.35;;;9.98;;
9485;SDS011;4781;48.776;9.200;2023-06-10T03:52:53;12.03;;;10.40;;
9485;SDS011;4781;48.776;9.200;2023-06-10T03:55:21;11.35;;;10.08;;
9485;SDS011;4781;48.776;9.200;2023-06-10T03:57:50;12.25;;;9.98;;
9485;SDS011;4781;48.776;9.200;2023-06-10T04:00:18;12.63;;;10.77;;
9485;SDS011;4781;48.776;9.200;2023-06-10T04:02:47;11.18;;;10.08;;
9485;SDS011;4781;48.776;9.200;2023-06-10T04:05:18;11.35;;;10.15;;
9485;SDS011;4781;48.776;9.200;2023-06-10T04:07:47;10.85;;;9.65;;
9485;SDS011;4781;48.776;9.200;2023-06-10T04:10:16;13.28;;;10.20;;
9485;SDS011;4781;48.776;9.200;2023-06-10T04:12:45;12.10;;;10.78;;
9485;SDS011;4781;48.776;9.200;2023-06-10T04:15:13;10.75;;;9.65;;
9485;SDS011;4781;48.776;9.200;2023-06-10T04:17:42;13.45;;;10.43;;
9485;SDS011;4781;48.776;9.200;2023-06-10T04:20:10;13.00;;;10.30;;
9485;SDS011;4781;48.776;9.200;2023-06-10T04:22:39;11.80;;;10.60;;
9485;SDS011;4781;48.776;9.200;2023-06-10T04:25:08;11.97;;;10.40;;
9485;SDS011;4781;48.776;9.200;2023-06-10T04:27:37;13.70;;;10.28;;
9485;SDS011;4781;48.776;9.200;2023-06-10T04:30:06;11.85;;;10.65;;
9485;SDS011;4781;48.776;9.200;2023-06-10T04:32:35;11.33;;;10.13;;
9485;SDS011;4781;48.776;9.200;2023-06-10T04:35:03;11.68;;;10.35;;
9485;SDS011;4781;48.776;9.200;2023-06-10T04:37:32;11.50;;;10.35;;
9485;SDS011;4781;48.776;9.200;2023-06-10T04:40:00;11.57;;;10.38;;
9485;SDS011;4781;48.776;9.200;2023-06-10T04:42:29;10.85;;;9.63;;
9485;SDS011;4781;48.776;9.200;2023-06-10T04:44:57;11.35;;;9.60;;
9485;SDS011;4781;48.776;9.200;2023-06-10T04:47:26;12.85;;;10.90;;
9485;SDS011;4781;48.776;9.200;2023-06-10T04:49:54;14.30;;;10.30;;
9485;SDS011;4781;48.776;9.200;2023-06-10T04:52:24;12.30;;;10.55;;
9485;SDS011;4781;48.776;9.200;2023-06-10T04:54:53;11.78;;;10.25;;
9485;SDS011;4781;48.776;9.200;2023-06-10T04:57:21;12.88;;;9.98;;
9485;SDS011;4781;48.776;9.200;2023-06-10T04:59:50;10.98;;;9.60;;
9485;SDS011;4781;48.776;9.200;2023-06-10T05:02:19;12.37;;;10.10;;
9485;SDS011;4781;48.776;9.200;2023-06-10T05:04:47;11.35;;;10.15;;
9485;SDS011;4781;48.776;9.200;2023-06-10T05:07:16;11.80;;;10.60;;
9485;SDS011;4781;48.776;9.200;2023-06-10T05:09:44;11.63;;;10.15;;
9485;SDS011;4781;48.776;9.200;2023-06-10T05:12:12;12.58;;;10.30;;
9485;SDS011;4781;48.776;9.200;2023-06-10T05:14:41;13.18;;;11.18;;
9485;SDS011;4781;48.776;9.200;2023-06-10T05:17:10;10.80;;;9.70;;
9485;SDS011;4781;48.776;9.200;2023-06-10T05:19:39;12.20;;;10.25;;
9485;SDS011;4781;48.776;9.200;2023-06-10T05:22:10;12.00;;;10.13;;
9485;SDS011;4781;48.776;9.200;2023-06-10T05:24:39;11.12;;;9.30;;
9485;SDS011;4781;48.776;9.200;2023-06-10T05:27:07;10.28;;;9.15;;
9485;SDS011;4781;48.776;9.200;2023-06-10T05:29:35;10.72;;;9.63;;
9485;SDS011;4781;48.776;9.200;2023-06-10T05:32:04;11.20;;;9.93;;
9485;SDS011;4781;48.776;9.200;2023-06-10T05:34:33;11.38;;;9.70;;
9485;SDS011;4781;48.776;9.200;2023-06-10T05:37:01;11.65;;;10.40;;
9485;SDS011;4781;48.776;9.200;2023-06-10T05:39:30;11.30;;;10.10;;
9485;SDS011;4781;48.776;9.200;2023-06-10T05:42:00;12.53;;;10.35;;
9485;SDS011;4781;48.776;9.200;2023-06-10T05:44:29;11.12;;;9.93;;
9485;SDS011;4781;48.776;9.200;2023-06-10T05:46:57;11.18;;;9.80;;
9485;SDS011;4781;48.776;9.200;2023-06-10T05:49:26;10.45;;;9.35;;
9485;SDS011;4781;48.776;9.200;2023-06-10T05:51:55;11.05;;;9.95;;
9485;SDS011;4781;48.776;9.200;2023-06-10T05:54:25;11.45;;;9.38;;
9485;SDS011;4781;48.776;9.200;2023-06-10T05:56:53;10.58;;;9.48;;
9485;SDS011;4781;48.776;9.200;2023-06-10T05:59:22;10.18;;;8.90;;
9485;SDS011;4781;48.776;9.200;2023-06-10T06:01:50;13.55;;;10.00;;
9485;SDS011;4781;48.776;9.200;2023-06-10T06:04:19;10.85;;;9.70;;
9485;SDS011;4781;48.776;9.200;2023-06-10T06:06:47;11.75;;;8.70;;
9485;SDS011;4781;48.776;9.200;2023-06-10T06:09:15;12.68;;;9.28;;
9485;SDS011;4781;48.776;9.200;2023-06-10T06:11:44;10.50;;;9.20;;
9485;SDS011;4781;48.776;9.200;2023-06-10T06:14:12;10.00;;;8.85;;
9485;SDS011;4781;48.776;9.200;2023-06-10T06:16:41;11.18;;;9.18;;
9485;SDS011;4781;48.776;9.200;2023-06-10T06:19:09;10.38;;;9.00;;
9485;SDS011;4781;48.776;9.200;2023-06-10T06:21:37;10.93;;;9.43;;
9485;SDS011;4781;48.776;9.200;2023-06-10T06:24:06;10.98;;;8.60;;
9485;SDS011;4781;48.776;9.200;2023-06-10T06:26:34;9.25;;;8.35;;
9485;SDS011;4781;48.776;9.200;2023-06-10T06:29:03;11.68;;;8.73;;
9485;SDS011;4781;48.776;9.200;2023-06-10T06:31:31;9.48;;;8.48;;
9485;SDS011;4781;48.776;9.200;2023-06-10T06:34:00;9.65;;;8.63;;
9485;SDS011;4781;48.776;9.200;2023-06-10T06:36:28;10.85;;;8.78;;
9485;SDS011;4781;48.776;9.200;2023-06-10T06:38:56;9.90;;;8.18;;
9485;SDS011;4781;48.776;9.200;2023-06-10T06:41:30;9.05;;;8.13;;
9485;SDS011;4781;48.776;9.200;2023-06-10T06:43:55;10.23;;;8.20;;
9485;SDS011;4781;48.776;9.200;2023-06-10T06:46:23;9.98;;;8.53;;
9485;SDS011;4781;48.776;9.200;2023-06-10T06:48:52;9.33;;;8.00;;
9485;SDS011;4781;48.776;9.200;2023-06-10T06:51:20;10.82;;;7.85;;
9485;SDS011;4781;48.776;9.200;2023-06-10T06:53:48;9.90;;;8.90;;
9485;SDS011;4781;48.776;9.200;2023-06-10T06:56:18;9.45;;;8.48;;
9485;SDS011;4781;48.776;9.200;2023-06-10T06:58:47;10.50;;;8.35;;
9485;SDS011;4781;48.776;9.200;2023-06-10T07:01:15;9.90;;;8.50;;
9485;SDS011;4781;48.776;9.200;2023-06-10T07:03:44;10.80;;;8.53;;
9485;SDS011;4781;48.776;9.200;2023-06-10T07:06:12;8.60;;;7.70;;
9485;SDS011;4781;48.776;9.200;2023-06-10T07:08:41;9.48;;;8.18;;
9485;SDS011;4781;48.776;9.200;2023-06-10T07:11:09;10.00;;;8.90;;
9485;SDS011;4781;48.776;9.200;2023-06-10T07:13:38;10.28;;;8.75;;
9485;SDS011;4781;48.776;9.200;2023-06-10T07:16:07;9.78;;;8.48;;
9485;SDS011;4781;48.776;9.200;2023-06-10T07:18:36;12.13;;;9.63;;
9485;SDS011;4781;48.776;9.200;2023-06-10T07:21:04;10.08;;;8.68;;
9485;SDS011;4781;48.776;9.200;2023-06-10T07:23:33;8.88;;;7.75;;
9485;SDS011;4781;48.776;9.200;2023-06-10T07:26:01;8.48;;;7.58;;
9485;SDS011;4781;48.776;9.200;2023-06-10T07:28:29;10.30;;;7.83;;
9485;SDS011;4781;48.776;9.200;2023-06-10T07:30:58;10.68;;;7.83;;
9485;SDS011;4781;48.776;9.200;2023-06-10T07:33:26;9.48;;;7.92;;
9485;SDS011;4781;48.776;9.200;2023-06-10T07:35:55;9.23;;;8.00;;
9485;SDS011;4781;48.776;9.200;2023-06-10T07:38:24;8.55;;;7.60;;
9485;SDS011;4781;48.776;9.200;2023-06-10T07:40:53;10.28;;;7.97;;
9485;SDS011;4781;48.776;9.200;2023-06-10T07:43:21;8.15;;;7.17;;
9485;SDS011;4781;48.776;9.200;2023-06-10T07:45:50;10.80;;;7.83;;
9485;SDS011;4781;48.776;9.200;2023-06-10T07:48:18;9.90;;;8.25;;
9485;SDS011;4781;48.776;9.200;2023-06-10T07:50:47;9.58;;;8.38;;
9485;SDS011;4781;48.776;9.200;2023-06-10T07:53:15;9.58;;;7.90;;
9485;SDS011;4781;48.776;9.200;2023-06-10T07:55:44;9.35;;;7.95;;
9485;SDS011;4781;48.776;9.200;2023-06-10T07:58:12;10.93;;;8.90;;
9485;SDS011;4781;48.776;9.200;2023-06-10T08:00:41;10.05;;;9.05;;
9485;SDS011;4781;48.776;9.200;2023-06-10T08:03:09;11.97;;;8.38;;
9485;SDS011;4781;48.776;9.200;2023-06-10T08:05:39;10.03;;;8.50;;
9485;SDS011;4781;48.776;9.200;2023-06-10T08:08:07;10.28;;;8.55;;
9485;SDS011;4781;48.776;9.200;2023-06-10T08:10:35;10.25;;;8.93;;
9485;SDS011;4781;48.776;9.200;2023-06-10T08:13:04;8.73;;;7.83;;
9485;SDS011;4781;48.776;9.200;2023-06-10T08:15:32;9.38;;;7.42;;
9485;SDS011;4781;48.776;9.200;2023-06-10T08:18:01;9.13;;;7.75;;
9485;SDS011;4781;48.776;9.200;2023-06-10T08:20:29;10.32;;;8.75;;
9485;SDS011;4781;48.776;9.200;2023-06-10T08:22:58;9.85;;;8.43;;
9485;SDS011;4781;48.776;9.200;2023-06-10T08:25:27;11.80;;;8.03;;
9485;SDS011;4781;48.776;9.200;2023-06-10T08:27:55;10.75;;;8.43;;
9485;SDS011;4781;48.776;9.200;2023-06-10T08:30:24;9.15;;;7.58;;
9485;SDS011;4781;48.776;9.200;2023-06-10T08:32:52;8.63;;;7.72;;
9485;SDS011;4781;48.776;9.200;2023-06-10T08:35:21;9.08;;;8.18;;
9485;SDS011;4781;48.776;9.200;2023-06-10T08:37:50;9.70;;;7.25;;
9485;SDS011;4781;48.776;9.200;2023-06-10T08:40:18;8.85;;;7.17;;
9485;SDS011;4781;48.776;9.200;2023-06-10T08:42:54;9.70;;;8.03;;
9485;SDS011;4781;48.776;9.200;2023-06-10T08:45:37;9.83;;;8.10;;
9485;SDS011;4781;48.776;9.200;2023-06-10T08:48:05;8.98;;;6.83;;
9485;SDS011;4781;48.776;9.200;2023-06-10T08:50:35;9.50;;;7.90;;
9485;SDS011;4781;48.776;9.200;2023-06-10T08:53:05;7.92;;;7.12;;
9485;SDS011;4781;48.776;9.200;2023-06-10T08:55:42;10.18;;;7.08;;
9485;SDS011;4781;48.776;9.200;2023-06-10T08:58:08;7.45;;;6.62;;
9485;SDS011;4781;48.776;9.200;2023-06-10T09:00:38;7.80;;;7.00;;
9485;SDS011;4781;48.776;9.200;2023-06-10T09:03:07;6.92;;;6.08;;
9485;SDS011;4781;48.776;9.200;2023-06-10T09:05:35;9.40;;;6.95;;
9485;SDS011;4781;48.776;9.200;2023-06-10T09:08:05;7.97;;;5.80;;
9485;SDS011;4781;48.776;9.200;2023-06-10T09:10:35;7.50;;;6.60;;
9485;SDS011;4781;48.776;9.200;2023-06-10T09:13:03;7.50;;;6.70;;
9485;SDS011;4781;48.776;9.200;2023-06-10T09:15:31;7.92;;;7.03;;
9485;SDS011;4781;48.776;9.200;2023-06-10T09:18:00;7.87;;;7.08;;
9485;SDS011;4781;48.776;9.200;2023-06-10T09:20:30;7.53;;;6.25;;
9485;SDS011;4781;48.776;9.200;2023-06-10T09:22:59;9.68;;;6.40;;
9485;SDS011;4781;48.776;9.200;2023-06-10T09:25:38;7.58;;;6.35;;
9485;SDS011;4781;48.776;9.200;2023-06-10T09:28:12;7.28;;;6.28;;
9485;SDS011;4781;48.776;9.200;2023-06-10T09:30:43;6.25;;;5.65;;
9485;SDS011;4781;48.776;9.200;2023-06-10T09:33:12;7.92;;;6.40;;
9485;SDS011;4781;48.776;9.200;2023-06-10T09:35:45;7.17;;;6.45;;
9485;SDS011;4781;48.776;9.200;2023-06-10T09:38:21;7.95;;;6.08;;
9485;SDS011;4781;48.776;9.200;2023-06-10T09:40:50;9.03;;;6.12;;
9485;SDS011;4781;48.776;9.200;2023-06-10T09:43:20;7.67;;;6.60;;
9485;SDS011;4781;48.776;9.200;2023-06-10T09:45:50;8.03;;;7.22;;
9485;SDS011;4781;48.776;9.200;2023-06-10T09:48:18;7.83;;;6.83;;
9485;SDS011;4781;48.776;9.200;2023-06-10T09:50:48;8.83;;;6.40;;
9485;SDS011;4781;48.776;9.200;2023-06-10T09:53:16;7.03;;;6.33;;
9485;SDS011;4781;48.776;9.200;2023-06-10T09:55:45;6.42;;;5.65;;
9485;SDS011;4781;48.776;9.200;2023-06-10T09:58:14;11.48;;;6.95;;
9485;SDS011;4781;48.776;9.200;2023-06-10T10:00:42;6.97;;;6.17;;
9485;SDS011;4781;48.776;9.200;2023-06-10T10:03:10;7.20;;;6.50;;
9485;SDS011;4781;48.776;9.200;2023-06-10T10:05:44;8.80;;;6.80;;
9485;SDS011;4781;48.776;9.200;2023-06-10T10:08:12;8.18;;;6.83;;
9485;SDS011;4781;48.776;9.200;2023-06-10T10:10:41;9.43;;;7.03;;
9485;SDS011;4781;48.776;9.200;2023-06-10T10:13:09;9.20;;;6.80;;
9485;SDS011;4781;48.776;9.200;2023-06-10T10:15:38;10.32;;;6.58;;
9485;SDS011;4781;48.776;9.200;2023-06-10T10:18:08;8.53;;;6.92;;
9485;SDS011;4781;48.776;9.200;2023-06-10T10:20:41;11.05;;;6.35;;
9485;SDS011;4781;48.776;9.200;2023-06-10T10:23:13;6.47;;;5.62;;
9485;SDS011;4781;48.776;9.200;2023-06-10T10:25:45;10.55;;;6.83;;
9485;SDS011;4781;48.776;9.200;2023-06-10T10:28:18;8.23;;;7.37;;
9485;SDS011;4781;48.776;9.200;2023-06-10T10:30:52;8.35;;;6.65;;
9485;SDS011;4781;48.776;9.200;2023-06-10T10:33:25;7.08;;;6.33;;
9485;SDS011;4781;48.776;9.200;2023-06-10T10:35:56;7.22;;;6.50;;
9485;SDS011;4781;48.776;9.200;2023-06-10T10:38:26;8.68;;;6.87;;
9485;SDS011;4781;48.776;9.200;2023-06-10T10:40:56;8.75;;;6.83;;
9485;SDS011;4781;48.776;9.200;2023-06-10T10:43:27;7.00;;;6.30;;
9485;SDS011;4781;48.776;9.200;2023-06-10T10:46:00;6.35;;;5.62;;
9485;SDS011;4781;48.776;9.200;2023-06-10T10:48:33;6.62;;;5.87;;
9485;SDS011;4781;48.776;9.200;2023-06-10T10:51:08;9.10;;;6.20;;
9485;SDS011;4781;48.776;9.200;2023-06-10T10:53:38;6.60;;;5.75;;
9485;SDS011;4781;48.776;9.200;2023-06-10T10:59:05;7.40;;;5.83;;
9485;SDS011;4781;48.776;9.200;2023-06-10T11:01:56;6.67;;;5.83;;
9485;SDS011;4781;48.776;9.200;2023-06-10T11:04:26;7.50;;;5.60;;
9485;SDS011;4781;48.776;9.200;2023-06-10T11:06:54;7.12;;;6.42;;
9485;SDS011;4781;48.776;9.200;2023-06-10T11:09:27;6.60;;;5.87;;
9485;SDS011;4781;48.776;9.200;2023-06-10T11:11:56;7.22;;;6.30;;
9485;SDS011;4781;48.776;9.200;2023-06-10T11:14:26;8.68;;;6.40;;
9485;SDS011;4781;48.776;9.200;2023-06-10T11:16:56;7.30;;;6.20;;
9485;SDS011;4781;48.776;9.200;2023-06-10T11:19:32;6.72;;;5.47;;
9485;SDS011;4781;48.776;9.200;2023-06-10T11:22:03;6.35;;;5.70;;
9485;SDS011;4781;48.776;9.200;2023-06-10T11:24:34;8.75;;;5.97;;
9485;SDS011;4781;48.776;9.200;2023-06-10T11:27:15;7.12;;;5.80;;
9485;SDS011;4781;48.776;9.200;2023-06-10T11:32:34;8.38;;;6.40;;
9485;SDS011;4781;48.776;9.200;2023-06-10T11:35:02;8.58;;;6.53;;
9485;SDS011;4781;48.776;9.200;2023-06-10T11:37:31;8.68;;;6.95;;
9485;SDS011;4781;48.776;9.200;2023-06-10T11:40:00;8.38;;;6.58;;
9485;SDS011;4781;48.776;9.200;2023-06-10T11:42:29;7.45;;;6.65;;
9485;SDS011;4781;48.776;9.200;2023-06-10T11:44:58;7.03;;;6.33;;
9485;SDS011;4781;48.776;9.200;2023-06-10T11:47:28;6.83;;;5.58;;
9485;SDS011;4781;48.776;9.200;2023-06-10T11:49:56;7.12;;;6.42;;
9485;SDS011;4781;48.776;9.200;2023-06-10T11:52:29;6.42;;;5.58;;
9485;SDS011;4781;48.776;9.200;2023-06-10T11:55:02;7.95;;;5.53;;
9485;SDS011;4781;48.776;9.200;2023-06-10T11:57:37;7.53;;;6.33;;
9485;SDS011;4781;48.776;9.200;2023-06-10T12:00:05;7.28;;;6.58;;
9485;SDS011;4781;48.776;9.200;2023-06-10T12:02:34;7.70;;;6.90;;
9485;SDS011;4781;48.776;9.200;2023-06-10T12:05:12;6.92;;;5.97;;
9485;SDS011;4781;48.776;9.200;2023-06-10T12:07:41;9.35;;;6.37;;
9485;SDS011;4781;48.776;9.200;2023-06-10T12:10:09;7.83;;;6.40;;
9485;SDS011;4781;48.776;9.200;2023-06-10T12:12:38;7.67;;;6.30;;
9485;SDS011;4781;48.776;9.200;2023-06-10T12:15:07;7.53;;;5.55;;
9485;SDS011;4781;48.776;9.200;2023-06-10T12:17:36;8.65;;;6.10;;
9485;SDS011;4781;48.776;9.200;2023-06-10T12:20:25;7.12;;;6.35;;
9485;SDS011;4781;48.776;9.200;2023-06-10T12:22:38;9.13;;;5.12;;
9485;SDS011;4781;48.776;9.200;2023-06-10T12:25:10;6.90;;;5.65;;
9485;SDS011;4781;48.776;9.200;2023-06-10T12:27:40;8.00;;;4.97;;
9485;SDS011;4781;48.776;9.200;2023-06-10T12:30:17;6.50;;;5.33;;
9485;SDS011;4781;48.776;9.200;2023-06-10T12:32:45;6.05;;;5.45;;
9485;SDS011;4781;48.776;9.200;2023-06-10T12:35:16;6.53;;;5.80;;
9485;SDS011;4781;48.776;9.200;2023-06-10T12:38:03;9.63;;;5.60;;
9485;SDS011;4781;48.776;9.200;2023-06-10T12:40:37;7.83;;;6.15;;
9485;SDS011;4781;48.776;9.200;2023-06-10T12:43:06;9.38;;;5.95;;
9485;SDS011;4781;48.776;9.200;2023-06-10T12:45:36;7.75;;;6.22;;
9485;SDS011;4781;48.776;9.200;2023-06-10T12:48:20;7.42;;;5.72;;
9485;SDS011;4781;48.776;9.200;2023-06-10T12:50:52;7.40;;;5.65;;
9485;SDS011;4781;48.776;9.200;2023-06-10T12:53:22;6.53;;;5.40;;
9485;SDS011;4781;48.776;9.200;2023-06-10T12:55:52;7.42;;;6.37;;
9485;SDS011;4781;48.776;9.200;2023-06-10T12:58:21;7.05;;;5.55;;
9485;SDS011;4781;48.776;9.200;2023-06-10T13:00:49;6.97;;;5.65;;
9485;SDS011;4781;48.776;9.200;2023-06-10T13:03:18;6.78;;;6.08;;
9485;SDS011;4781;48.776;9.200;2023-06-10T13:05:47;9.28;;;6.50;;
9485;SDS011;4781;48.776;9.200;2023-06-10T13:08:15;6.55;;;5.33;;
9485;SDS011;4781;48.776;9.200;2023-06-10T13:10:44;5.55;;;4.72;;
9485;SDS011;4781;48.776;9.200;2023-06-10T13:13:14;5.97;;;5.37;;
9485;SDS011;4781;48.776;9.200;2023-06-10T13:15:43;7.15;;;5.83;;
9485;SDS011;4781;48.776;9.200;2023-06-10T13:18:11;6.60;;;5.95;;
9485;SDS011;4781;48.776;9.200;2023-06-10T13:20:40;8.35;;;6.60;;
9485;SDS011;4781;48.776;9.200;2023-06-10T13:23:08;6.78;;;6.08;;
9485;SDS011;4781;48.776;9.200;2023-06-10T13:25:37;8.85;;;6.22;;
9485;SDS011;4781;48.776;9.200;2023-06-10T13:28:06;7.72;;;6.33;;
9485;SDS011;4781;48.776;9.200;2023-06-10T13:30:34;6.97;;;5.87;;
9485;SDS011;4781;48.776;9.200;2023-06-10T13:33:03;6.78;;;6.08;;
9485;SDS011;4781;48.776;9.200;2023-06-10T13:35:32;7.47;;;6.03;;
9485;SDS011;4781;48.776;9.200;2023-06-10T13:38:00;6.10;;;5.30;;
9485;SDS011;4781;48.776;9.200;2023-06-10T13:40:28;6.22;;;5.37;;
9485;SDS011;4781;48.776;9.200;2023-06-10T13:42:57;8.03;;;5.72;;
9485;SDS011;4781;48.776;9.200;2023-06-10T13:45:25;6.00;;;5.40;;
9485;SDS011;4781;48.776;9.200;2023-06-10T13:47:53;7.60;;;5.60;;
9485;SDS011;4781;48.776;9.200;2023-06-10T13:50:22;6.28;;;5.67;;
9485;SDS011;4781;48.776;9.200;2023-06-10T13:52:50;9.35;;;6.22;;
9485;SDS011;4781;48.776;9.200;2023-06-10T13:55:19;6.70;;;6.00;;
9485;SDS011;4781;48.776;9.200;2023-06-10T13:57:47;8.10;;;6.35;;
9485;SDS011;4781;48.776;9.200;2023-06-10T14:00:16;7.43;;;5.77;;
9485;SDS011;4781;48.776;9.200;2023-06-10T14:02:44;6.33;;;5.67;;
9485;SDS011;4781;48.776;9.200;2023-06-10T14:05:13;8.35;;;5.62;;
9485;SDS011;4781;48.776;9.200;2023-06-10T14:07:41;9.33;;;5.30;;
9485;SDS011;4781;48.776;9.200;2023-06-10T14:10:10;6.40;;;5.15;;
9485;SDS011;4781;48.776;9.200;2023-06-10T14:12:38;7.60;;;5.80;;
9485;SDS011;4781;48.776;9.200;2023-06-10T14:15:07;6.92;;;5.83;;
9485;SDS011;4781;48.776;9.200;2023-06-10T14:17:36;7.67;;;5.60;;
9485;SDS011;4781;48.776;9.200;2023-06-10T14:20:04;6.58;;;5.87;;
9485;SDS011;4781;48.776;9.200;2023-06-10T14:22:33;8.40;;;6.28;;
9485;SDS011;4781;48.776;9.200;2023-06-10T14:25:02;6.62;;;5.72;;
9485;SDS011;4781;48.776;9.200;2023-06-10T14:27:31;7.45;;;5.70;;
9485;SDS011;4781;48.776;9.200;2023-06-10T14:29:59;7.55;;;5.75;;
9485;SDS011;4781;48.776;9.200;2023-06-10T14:32:28;6.70;;;5.97;;
9485;SDS011;4781;48.776;9.200;2023-06-10T14:34:57;9.53;;;5.78;;
9485;SDS011;4781;48.776;9.200;2023-06-10T14:37:26;6.80;;;5.87;;
9485;SDS011;4781;48.776;9.200;2023-06-10T14:39:54;6.15;;;5.40;;
9485;SDS011;4781;48.776;9.200;2023-06-10T14:42:22;6.60;;;5.95;;
9485;SDS011;4781;48.776;9.200;2023-06-10T14:44:51;6.37;;;5.40;;
9485;SDS011;4781;48.776;9.200;2023-06-10T14:47:19;8.08;;;5.87;;
9485;SDS011;4781;48.776;9.200;2023-06-10T14:49:48;7.75;;;6.12;;
9485;SDS011;4781;48.776;9.200;2023-06-10T14:52:16;7.60;;;6.30;;
9485;SDS011;4781;48.776;9.200;2023-06-10T14:54:44;6.83;;;5.87;;
9485;SDS011;4781;48.776;9.200;2023-06-10T14:57:13;6.87;;;6.20;;
9485;SDS011;4781;48.776;9.200;2023-06-10T14:59:41;6.55;;;5.87;;
9485;SDS011;4781;48.776;9.200;2023-06-10T15:02:10;6.30;;;5.70;;
9485;SDS011;4781;48.776;9.200;2023-06-10T15:04:38;6.97;;;5.60;;
9485;SDS011;4781;48.776;9.200;2023-06-10T15:07:07;8.13;;;6.05;;
9485;SDS011;4781;48.776;9.200;2023-06-10T15:09:35;8.03;;;6.67;;
9485;SDS011;4781;48.776;9.200;2023-06-10T15:12:03;7.30;;;6.20;;
9485;SDS011;4781;48.776;9.200;2023-06-10T15:14:32;7.95;;;6.42;;
9485;SDS011;4781;48.776;9.200;2023-06-10T15:17:01;7.80;;;7.00;;
9485;SDS011;4781;48.776;9.200;2023-06-10T15:19:30;7.47;;;6.78;;
9485;SDS011;4781;48.776;9.200;2023-06-10T15:21:58;7.58;;;6.80;;
9485;SDS011;4781;48.776;9.200;2023-06-10T15:24:26;7.30;;;6.60;;
9485;SDS011;4781;48.776;9.200;2023-06-10T15:26:55;7.78;;;6.65;;